sensor_id;sensor_type;location;lat;lon;timestamp;P1;durP1;ratioP1;P2;durP2;ratioP2
6821;SDS011;3449;48.728;8.968;2023-06-04T00:00:41;6.90;;;4.27;;
6821;SDS011;3449;48.728;8.968;2023-06-04T00:03:08;10.73;;;5.40;;
6821;SDS011;3449;48.728;8.968;2023-06-04T00:05:35;8.43;;;5.00;;
6821;SDS011;3449;48.728;8.968;2023-06-04T00:08:02;9.40;;;5.20;;
6821;SDS011;3449;48.728;8.968;2023-06-04T00:10:30;8.43;;;4.80;;
6821;SDS011;3449;48.728;8.968;2023-06-04T00:12:58;7.80;;;4.97;;
6821;SDS011;3449;48.728;8.968;2023-06-04T00:15:25;9.90;;;5.00;;
6821;SDS011;3449;48.728;8.968;2023-06-04T00:17:52;10.13;;;4.77;;
6821;SDS011;3449;48.728;8.968;2023-06-04T00:20:21;9.70;;;5.47;;
6821;SDS011;3449;48.728;8.968;2023-06-04T00:22:48;6.40;;;4.53;;
6821;SDS011;3449;48.728;8.968;2023-06-04T00:25:15;6.50;;;4.37;;
6821;SDS011;3449;48.728;8.968;2023-06-04T00:27:44;7.90;;;4.77;;
6821;SDS011;3449;48.728;8.968;2023-06-04T00:30:11;13.43;;;5.20;;
6821;SDS011;3449;48.728;8.968;2023-06-04T00:32:39;7.90;;;4.63;;
6821;SDS011;3449;48.728;8.968;2023-06-04T00:35:06;7.73;;;5.30;;
6821;SDS011;3449;48.728;8.968;2023-06-04T00:37:34;7.87;;;5.23;;
6821;SDS011;3449;48.728;8.968;2023-06-04T00:40:01;7.60;;;5.27;;
6821;SDS011;3449;48.728;8.968;2023-06-04T00:42:28;9.80;;;6.17;;
6821;SDS011;3449;48.728;8.968;2023-06-04T00:44:57;16.20;;;4.80;;
6821;SDS011;3449;48.728;8.968;2023-06-04T00:47:24;9.30;;;5.33;;
6821;SDS011;3449;48.728;8.968;2023-06-04T00:49:53;7.00;;;5.20;;
6821;SDS011;3449;48.728;8.968;2023-06-04T00:52:23;8.30;;;5.07;;
6821;SDS011;3449;48.728;8.968;2023-06-04T00:54:51;10.10;;;5.60;;
6821;SDS011;3449;48.728;8.968;2023-06-04T00:57:19;7.40;;;5.00;;
6821;SDS011;3449;48.728;8.968;2023-06-04T00:59:46;10.70;;;5.30;;
6821;SDS011;3449;48.728;8.968;2023-06-04T01:02:15;7.83;;;4.63;;
6821;SDS011;3449;48.728;8.968;2023-06-04T01:04:46;7.37;;;4.60;;
6821;SDS011;3449;48.728;8.968;2023-06-04T01:07:18;6.90;;;4.90;;
6821;SDS011;3449;48.728;8.968;2023-06-04T01:09:46;11.33;;;6.13;;
6821;SDS011;3449;48.728;8.968;2023-06-04T01:12:13;6.87;;;4.77;;
6821;SDS011;3449;48.728;8.968;2023-06-04T01:14:40;8.90;;;5.73;;
6821;SDS011;3449;48.728;8.968;2023-06-04T01:17:10;8.93;;;5.13;;
6821;SDS011;3449;48.728;8.968;2023-06-04T01:19:50;7.50;;;5.13;;
6821;SDS011;3449;48.728;8.968;2023-06-04T01:22:29;10.73;;;5.40;;
6821;SDS011;3449;48.728;8.968;2023-06-04T01:25:02;6.83;;;5.30;;
6821;SDS011;3449;48.728;8.968;2023-06-04T01:27:30;14.80;;;5.63;;
6821;SDS011;3449;48.728;8.968;2023-06-04T01:29:57;7.57;;;5.23;;
6821;SDS011;3449;48.728;8.968;2023-06-04T01:32:25;5.70;;;4.63;;
6821;SDS011;3449;48.728;8.968;2023-06-04T01:34:54;9.43;;;5.13;;
6821;SDS011;3449;48.728;8.968;2023-06-04T01:37:21;6.00;;;4.40;;
6821;SDS011;3449;48.728;8.968;2023-06-04T01:39:48;6.40;;;5.30;;
6821;SDS011;3449;48.728;8.968;2023-06-04T01:42:15;7.73;;;5.00;;
6821;SDS011;3449;48.728;8.968;2023-06-04T01:44:42;9.47;;;4.83;;
6821;SDS011;3449;48.728;8.968;2023-06-04T01:47:09;8.90;;;4.50;;
6821;SDS011;3449;48.728;8.968;2023-06-04T01:49:36;7.10;;;4.80;;
6821;SDS011;3449;48.728;8.968;2023-06-04T01:52:05;7.20;;;4.23;;
6821;SDS011;3449;48.728;8.968;2023-06-04T01:54:32;7.87;;;5.43;;
6821;SDS011;3449;48.728;8.968;2023-06-04T01:56:59;7.33;;;4.83;;
6821;SDS011;3449;48.728;8.968;2023-06-04T01:59:26;9.57;;;4.57;;
6821;SDS011;3449;48.728;8.968;2023-06-04T02:01:52;7.27;;;5.63;;
6821;SDS011;3449;48.728;8.968;2023-06-04T02:04:19;8.63;;;4.40;;
6821;SDS011;3449;48.728;8.968;2023-06-04T02:06:46;8.07;;;5.33;;
6821;SDS011;3449;48.728;8.968;2023-06-04T02:09:15;9.03;;;5.03;;
6821;SDS011;3449;48.728;8.968;2023-06-04T02:11:42;7.27;;;4.73;;
6821;SDS011;3449;48.728;8.968;2023-06-04T02:14:09;9.17;;;5.10;;
6821;SDS011;3449;48.728;8.968;2023-06-04T02:16:35;7.47;;;5.07;;
6821;SDS011;3449;48.728;8.968;2023-06-04T02:19:03;9.03;;;5.90;;
6821;SDS011;3449;48.728;8.968;2023-06-04T02:21:30;6.40;;;4.87;;
6821;SDS011;3449;48.728;8.968;2023-06-04T02:23:56;6.13;;;4.00;;
6821;SDS011;3449;48.728;8.968;2023-06-04T02:26:25;7.37;;;4.47;;
6821;SDS011;3449;48.728;8.968;2023-06-04T02:28:51;7.50;;;4.37;;
6821;SDS011;3449;48.728;8.968;2023-06-04T02:31:18;11.07;;;5.23;;
6821;SDS011;3449;48.728;8.968;2023-06-04T02:33:46;8.20;;;5.07;;
6821;SDS011;3449;48.728;8.968;2023-06-04T02:36:13;8.60;;;4.60;;
6821;SDS011;3449;48.728;8.968;2023-06-04T02:38:40;10.03;;;5.23;;
6821;SDS011;3449;48.728;8.968;2023-06-04T02:41:07;7.50;;;4.23;;
6821;SDS011;3449;48.728;8.968;2023-06-04T02:43:36;8.37;;;4.80;;
6821;SDS011;3449;48.728;8.968;2023-06-04T02:46:02;10.93;;;4.87;;
6821;SDS011;3449;48.728;8.968;2023-06-04T02:48:31;8.00;;;5.40;;
6821;SDS011;3449;48.728;8.968;2023-06-04T02:50:58;9.87;;;5.60;;
6821;SDS011;3449;48.728;8.968;2023-06-04T02:53:24;8.90;;;5.90;;
6821;SDS011;3449;48.728;8.968;2023-06-04T02:55:51;12.00;;;5.97;;
6821;SDS011;3449;48.728;8.968;2023-06-04T02:58:18;10.97;;;5.57;;
6821;SDS011;3449;48.728;8.968;2023-06-04T03:00:48;6.67;;;4.67;;
6821;SDS011;3449;48.728;8.968;2023-06-04T03:03:15;9.23;;;5.10;;
6821;SDS011;3449;48.728;8.968;2023-06-04T03:05:42;8.47;;;4.90;;
6821;SDS011;3449;48.728;8.968;2023-06-04T03:08:08;10.47;;;5.43;;
6821;SDS011;3449;48.728;8.968;2023-06-04T03:10:35;10.17;;;5.60;;
6821;SDS011;3449;48.728;8.968;2023-06-04T03:13:02;6.47;;;4.40;;
6821;SDS011;3449;48.728;8.968;2023-06-04T03:15:29;6.93;;;5.60;;
6821;SDS011;3449;48.728;8.968;2023-06-04T03:17:57;7.03;;;5.03;;
6821;SDS011;3449;48.728;8.968;2023-06-04T03:20:24;9.33;;;5.13;;
6821;SDS011;3449;48.728;8.968;2023-06-04T03:22:51;9.20;;;5.00;;
6821;SDS011;3449;48.728;8.968;2023-06-04T03:25:18;9.97;;;5.17;;
6821;SDS011;3449;48.728;8.968;2023-06-04T03:27:45;10.87;;;5.20;;
6821;SDS011;3449;48.728;8.968;2023-06-04T03:30:12;15.50;;;5.80;;
6821;SDS011;3449;48.728;8.968;2023-06-04T03:32:39;8.70;;;5.47;;
6821;SDS011;3449;48.728;8.968;2023-06-04T03:35:08;10.40;;;5.43;;
6821;SDS011;3449;48.728;8.968;2023-06-04T03:37:35;9.87;;;5.50;;
6821;SDS011;3449;48.728;8.968;2023-06-04T03:40:02;10.00;;;5.40;;
6821;SDS011;3449;48.728;8.968;2023-06-04T03:42:31;9.40;;;4.73;;
6821;SDS011;3449;48.728;8.968;2023-06-04T03:44:58;9.50;;;4.60;;
6821;SDS011;3449;48.728;8.968;2023-06-04T03:47:24;9.50;;;5.73;;
6821;SDS011;3449;48.728;8.968;2023-06-04T03:49:51;8.10;;;5.10;;
6821;SDS011;3449;48.728;8.968;2023-06-04T03:52:19;8.63;;;4.63;;
6821;SDS011;3449;48.728;8.968;2023-06-04T03:54:46;7.80;;;4.63;;
6821;SDS011;3449;48.728;8.968;2023-06-04T03:57:13;3.97;;;3.67;;
6821;SDS011;3449;48.728;8.968;2023-06-04T03:59:40;5.27;;;4.10;;
6821;SDS011;3449;48.728;8.968;2023-06-04T04:02:07;8.80;;;4.50;;
6821;SDS011;3449;48.728;8.968;2023-06-04T04:04:34;10.03;;;4.33;;
6821;SDS011;3449;48.728;8.968;2023-06-04T04:07:00;7.53;;;4.57;;
6821;SDS011;3449;48.728;8.968;2023-06-04T04:09:29;7.67;;;4.97;;
6821;SDS011;3449;48.728;8.968;2023-06-04T04:11:56;8.90;;;4.80;;
6821;SDS011;3449;48.728;8.968;2023-06-04T04:14:22;6.70;;;4.27;;
6821;SDS011;3449;48.728;8.968;2023-06-04T04:16:49;6.00;;;4.20;;
6821;SDS011;3449;48.728;8.968;2023-06-04T04:19:16;5.70;;;4.73;;
6821;SDS011;3449;48.728;8.968;2023-06-04T04:21:43;7.07;;;4.73;;
6821;SDS011;3449;48.728;8.968;2023-06-04T04:24:21;5.70;;;3.80;;
6821;SDS011;3449;48.728;8.968;2023-06-04T04:26:50;4.80;;;3.70;;
6821;SDS011;3449;48.728;8.968;2023-06-04T04:29:18;7.73;;;3.83;;
6821;SDS011;3449;48.728;8.968;2023-06-04T04:31:47;8.40;;;4.73;;
6821;SDS011;3449;48.728;8.968;2023-06-04T04:34:14;9.07;;;4.73;;
6821;SDS011;3449;48.728;8.968;2023-06-04T04:36:42;7.93;;;4.50;;
6821;SDS011;3449;48.728;8.968;2023-06-04T04:39:09;5.93;;;3.87;;
6821;SDS011;3449;48.728;8.968;2023-06-04T04:41:36;9.67;;;4.30;;
6821;SDS011;3449;48.728;8.968;2023-06-04T04:44:05;11.10;;;3.90;;
6821;SDS011;3449;48.728;8.968;2023-06-04T04:46:32;7.00;;;3.83;;
6821;SDS011;3449;48.728;8.968;2023-06-04T04:48:59;4.27;;;3.30;;
6821;SDS011;3449;48.728;8.968;2023-06-04T04:51:26;4.30;;;3.40;;
6821;SDS011;3449;48.728;8.968;2023-06-04T04:53:52;4.80;;;3.60;;
6821;SDS011;3449;48.728;8.968;2023-06-04T04:56:20;6.80;;;4.30;;
6821;SDS011;3449;48.728;8.968;2023-06-04T04:58:47;7.00;;;4.33;;
6821;SDS011;3449;48.728;8.968;2023-06-04T05:01:15;8.27;;;4.20;;
6821;SDS011;3449;48.728;8.968;2023-06-04T05:03:42;5.87;;;4.10;;
6821;SDS011;3449;48.728;8.968;2023-06-04T05:06:09;7.90;;;3.73;;
6821;SDS011;3449;48.728;8.968;2023-06-04T05:08:36;7.77;;;4.40;;
6821;SDS011;3449;48.728;8.968;2023-06-04T05:11:03;4.70;;;3.43;;
6821;SDS011;3449;48.728;8.968;2023-06-04T05:13:30;4.83;;;4.00;;
6821;SDS011;3449;48.728;8.968;2023-06-04T05:15:57;14.37;;;4.73;;
6821;SDS011;3449;48.728;8.968;2023-06-04T05:18:26;5.03;;;3.60;;
6821;SDS011;3449;48.728;8.968;2023-06-04T05:20:54;6.87;;;4.13;;
6821;SDS011;3449;48.728;8.968;2023-06-04T05:23:22;7.30;;;3.73;;
6821;SDS011;3449;48.728;8.968;2023-06-04T05:25:50;5.10;;;3.40;;
6821;SDS011;3449;48.728;8.968;2023-06-04T05:28:17;5.27;;;3.77;;
6821;SDS011;3449;48.728;8.968;2023-06-04T05:30:44;5.97;;;3.50;;
6821;SDS011;3449;48.728;8.968;2023-06-04T05:33:13;4.70;;;3.60;;
6821;SDS011;3449;48.728;8.968;2023-06-04T05:35:45;7.80;;;3.90;;
6821;SDS011;3449;48.728;8.968;2023-06-04T05:38:13;5.03;;;3.40;;
6821;SDS011;3449;48.728;8.968;2023-06-04T05:40:42;7.10;;;4.00;;
6821;SDS011;3449;48.728;8.968;2023-06-04T05:43:09;4.03;;;3.40;;
6821;SDS011;3449;48.728;8.968;2023-06-04T05:45:36;7.27;;;3.63;;
6821;SDS011;3449;48.728;8.968;2023-06-04T05:48:03;9.20;;;3.23;;
6821;SDS011;3449;48.728;8.968;2023-06-04T05:50:30;5.43;;;3.10;;
6821;SDS011;3449;48.728;8.968;2023-06-04T05:52:59;4.57;;;3.30;;
6821;SDS011;3449;48.728;8.968;2023-06-04T05:55:26;3.50;;;2.87;;
6821;SDS011;3449;48.728;8.968;2023-06-04T05:57:54;5.47;;;2.50;;
6821;SDS011;3449;48.728;8.968;2023-06-04T06:00:21;4.47;;;3.13;;
6821;SDS011;3449;48.728;8.968;2023-06-04T06:02:48;4.97;;;2.67;;
6821;SDS011;3449;48.728;8.968;2023-06-04T06:05:16;5.60;;;2.97;;
6821;SDS011;3449;48.728;8.968;2023-06-04T06:07:44;2.90;;;2.10;;
6821;SDS011;3449;48.728;8.968;2023-06-04T06:10:12;3.47;;;2.90;;
6821;SDS011;3449;48.728;8.968;2023-06-04T06:12:40;3.13;;;2.53;;
6821;SDS011;3449;48.728;8.968;2023-06-04T06:15:08;4.43;;;2.27;;
6821;SDS011;3449;48.728;8.968;2023-06-04T06:17:35;3.13;;;2.83;;
6821;SDS011;3449;48.728;8.968;2023-06-04T06:20:04;3.80;;;2.47;;
6821;SDS011;3449;48.728;8.968;2023-06-04T06:22:33;5.47;;;2.50;;
6821;SDS011;3449;48.728;8.968;2023-06-04T06:25:00;4.30;;;2.50;;
6821;SDS011;3449;48.728;8.968;2023-06-04T06:27:29;2.50;;;1.97;;
6821;SDS011;3449;48.728;8.968;2023-06-04T06:29:56;2.47;;;2.10;;
6821;SDS011;3449;48.728;8.968;2023-06-04T06:32:23;6.03;;;2.70;;
6821;SDS011;3449;48.728;8.968;2023-06-04T06:34:50;3.10;;;2.30;;
6821;SDS011;3449;48.728;8.968;2023-06-04T06:37:17;3.07;;;2.27;;
6821;SDS011;3449;48.728;8.968;2023-06-04T06:39:43;3.67;;;2.23;;
6821;SDS011;3449;48.728;8.968;2023-06-04T06:42:10;4.03;;;2.20;;
6821;SDS011;3449;48.728;8.968;2023-06-04T06:44:39;4.30;;;1.87;;
6821;SDS011;3449;48.728;8.968;2023-06-04T06:47:06;2.27;;;2.07;;
6821;SDS011;3449;48.728;8.968;2023-06-04T06:49:33;2.30;;;1.83;;
6821;SDS011;3449;48.728;8.968;2023-06-04T06:51:59;2.40;;;1.93;;
6821;SDS011;3449;48.728;8.968;2023-06-04T06:54:26;4.00;;;2.17;;
6821;SDS011;3449;48.728;8.968;2023-06-04T06:56:53;6.23;;;2.50;;
6821;SDS011;3449;48.728;8.968;2023-06-04T06:59:20;11.93;;;2.50;;
6821;SDS011;3449;48.728;8.968;2023-06-04T07:01:48;3.90;;;2.53;;
6821;SDS011;3449;48.728;8.968;2023-06-04T07:04:15;3.07;;;2.23;;
6821;SDS011;3449;48.728;8.968;2023-06-04T07:06:42;4.83;;;2.07;;
6821;SDS011;3449;48.728;8.968;2023-06-04T07:09:09;2.00;;;1.70;;
6821;SDS011;3449;48.728;8.968;2023-06-04T07:11:36;3.27;;;2.30;;
6821;SDS011;3449;48.728;8.968;2023-06-04T07:14:03;3.47;;;2.30;;
6821;SDS011;3449;48.728;8.968;2023-06-04T07:16:30;3.13;;;2.10;;
6821;SDS011;3449;48.728;8.968;2023-06-04T07:19:00;3.50;;;2.50;;
6821;SDS011;3449;48.728;8.968;2023-06-04T07:21:27;2.40;;;1.70;;
6821;SDS011;3449;48.728;8.968;2023-06-04T07:23:54;2.27;;;2.07;;
6821;SDS011;3449;48.728;8.968;2023-06-04T07:26:21;2.20;;;1.90;;
6821;SDS011;3449;48.728;8.968;2023-06-04T07:28:48;6.10;;;2.47;;
6821;SDS011;3449;48.728;8.968;2023-06-04T07:31:15;4.20;;;2.50;;
6821;SDS011;3449;48.728;8.968;2023-06-04T07:33:42;5.37;;;3.00;;
6821;SDS011;3449;48.728;8.968;2023-06-04T07:36:11;3.40;;;2.10;;
6821;SDS011;3449;48.728;8.968;2023-06-04T07:38:39;2.73;;;2.10;;
6821;SDS011;3449;48.728;8.968;2023-06-04T07:41:06;3.90;;;2.30;;
6821;SDS011;3449;48.728;8.968;2023-06-04T07:43:32;3.00;;;2.20;;
6821;SDS011;3449;48.728;8.968;2023-06-04T07:46:00;2.70;;;2.10;;
6821;SDS011;3449;48.728;8.968;2023-06-04T07:48:27;3.83;;;2.43;;
6821;SDS011;3449;48.728;8.968;2023-06-04T07:50:56;7.80;;;2.53;;
6821;SDS011;3449;48.728;8.968;2023-06-04T07:53:25;3.13;;;2.37;;
6821;SDS011;3449;48.728;8.968;2023-06-04T07:55:52;2.43;;;2.00;;
6821;SDS011;3449;48.728;8.968;2023-06-04T07:58:20;2.70;;;1.80;;
6821;SDS011;3449;48.728;8.968;2023-06-04T08:00:47;6.07;;;2.37;;
6821;SDS011;3449;48.728;8.968;2023-06-04T08:03:14;2.40;;;2.20;;
6821;SDS011;3449;48.728;8.968;2023-06-04T08:05:41;2.43;;;1.93;;
6821;SDS011;3449;48.728;8.968;2023-06-04T08:08:08;5.00;;;2.50;;
6821;SDS011;3449;48.728;8.968;2023-06-04T08:10:36;3.27;;;2.10;;
6821;SDS011;3449;48.728;8.968;2023-06-04T08:13:03;7.43;;;2.63;;
6821;SDS011;3449;48.728;8.968;2023-06-04T08:15:30;2.73;;;2.37;;
6821;SDS011;3449;48.728;8.968;2023-06-04T08:17:57;4.60;;;2.93;;
6821;SDS011;3449;48.728;8.968;2023-06-04T08:20:24;5.10;;;2.43;;
6821;SDS011;3449;48.728;8.968;2023-06-04T08:22:50;3.77;;;2.77;;
6821;SDS011;3449;48.728;8.968;2023-06-04T08:25:17;5.90;;;2.60;;
6821;SDS011;3449;48.728;8.968;2023-06-04T08:27:45;2.60;;;1.93;;
6821;SDS011;3449;48.728;8.968;2023-06-04T08:30:12;2.60;;;2.10;;
6821;SDS011;3449;48.728;8.968;2023-06-04T08:32:39;4.30;;;2.50;;
6821;SDS011;3449;48.728;8.968;2023-06-04T08:35:07;5.60;;;2.83;;
6821;SDS011;3449;48.728;8.968;2023-06-04T08:37:34;6.00;;;2.23;;
6821;SDS011;3449;48.728;8.968;2023-06-04T08:40:01;2.93;;;2.70;;
6821;SDS011;3449;48.728;8.968;2023-06-04T08:42:32;3.17;;;2.47;;
6821;SDS011;3449;48.728;8.968;2023-06-04T08:45:06;5.70;;;2.60;;
6821;SDS011;3449;48.728;8.968;2023-06-04T08:47:37;2.03;;;1.90;;
6821;SDS011;3449;48.728;8.968;2023-06-04T08:50:06;4.60;;;2.53;;
6821;SDS011;3449;48.728;8.968;2023-06-04T08:52:36;4.93;;;2.83;;
6821;SDS011;3449;48.728;8.968;2023-06-04T08:55:05;3.73;;;1.87;;
6821;SDS011;3449;48.728;8.968;2023-06-04T08:57:32;2.43;;;1.97;;
6821;SDS011;3449;48.728;8.968;2023-06-04T08:59:59;5.30;;;2.13;;
6821;SDS011;3449;48.728;8.968;2023-06-04T09:02:32;3.10;;;2.30;;
6821;SDS011;3449;48.728;8.968;2023-06-04T09:05:01;2.83;;;2.53;;
6821;SDS011;3449;48.728;8.968;2023-06-04T09:07:30;3.30;;;2.70;;
6821;SDS011;3449;48.728;8.968;2023-06-04T09:10:01;5.73;;;2.87;;
6821;SDS011;3449;48.728;8.968;2023-06-04T09:12:29;2.80;;;2.33;;
6821;SDS011;3449;48.728;8.968;2023-06-04T09:14:58;2.60;;;2.17;;
6821;SDS011;3449;48.728;8.968;2023-06-04T09:17:25;8.13;;;2.40;;
6821;SDS011;3449;48.728;8.968;2023-06-04T09:19:53;4.50;;;3.13;;
6821;SDS011;3449;48.728;8.968;2023-06-04T09:22:30;3.97;;;3.03;;
6821;SDS011;3449;48.728;8.968;2023-06-04T09:24:58;4.10;;;2.13;;
6821;SDS011;3449;48.728;8.968;2023-06-04T09:27:25;2.60;;;2.07;;
6821;SDS011;3449;48.728;8.968;2023-06-04T09:29:54;4.10;;;2.63;;
6821;SDS011;3449;48.728;8.968;2023-06-04T09:32:22;3.50;;;2.80;;
6821;SDS011;3449;48.728;8.968;2023-06-04T09:34:48;4.40;;;2.63;;
6821;SDS011;3449;48.728;8.968;2023-06-04T09:37:19;3.57;;;2.10;;
6821;SDS011;3449;48.728;8.968;2023-06-04T09:39:52;4.43;;;2.00;;
6821;SDS011;3449;48.728;8.968;2023-06-04T09:42:20;3.20;;;2.57;;
6821;SDS011;3449;48.728;8.968;2023-06-04T09:44:47;4.87;;;2.80;;
6821;SDS011;3449;48.728;8.968;2023-06-04T09:47:14;3.30;;;2.97;;
6821;SDS011;3449;48.728;8.968;2023-06-04T09:49:41;4.80;;;3.00;;
6821;SDS011;3449;48.728;8.968;2023-06-04T09:52:08;2.50;;;2.27;;
6821;SDS011;3449;48.728;8.968;2023-06-04T09:54:37;7.67;;;2.80;;
6821;SDS011;3449;48.728;8.968;2023-06-04T09:57:05;4.70;;;2.20;;
6821;SDS011;3449;48.728;8.968;2023-06-04T09:59:40;8.00;;;2.83;;
6821;SDS011;3449;48.728;8.968;2023-06-04T10:02:10;5.17;;;2.70;;
6821;SDS011;3449;48.728;8.968;2023-06-04T10:04:38;5.37;;;3.53;;
6821;SDS011;3449;48.728;8.968;2023-06-04T10:07:07;3.97;;;3.00;;
6821;SDS011;3449;48.728;8.968;2023-06-04T10:09:36;3.07;;;2.50;;
6821;SDS011;3449;48.728;8.968;2023-06-04T10:12:10;3.57;;;3.23;;
6821;SDS011;3449;48.728;8.968;2023-06-04T10:14:40;4.20;;;2.60;;
6821;SDS011;3449;48.728;8.968;2023-06-04T10:17:11;3.27;;;2.47;;
6821;SDS011;3449;48.728;8.968;2023-06-04T10:19:39;4.60;;;4.03;;
6821;SDS011;3449;48.728;8.968;2023-06-04T10:22:10;4.80;;;4.00;;
6821;SDS011;3449;48.728;8.968;2023-06-04T10:24:38;5.77;;;3.60;;
6821;SDS011;3449;48.728;8.968;2023-06-04T10:27:06;3.07;;;2.30;;
6821;SDS011;3449;48.728;8.968;2023-06-04T10:29:36;5.30;;;3.10;;
6821;SDS011;3449;48.728;8.968;2023-06-04T10:32:03;3.77;;;2.60;;
6821;SDS011;3449;48.728;8.968;2023-06-04T10:34:30;3.63;;;2.97;;
6821;SDS011;3449;48.728;8.968;2023-06-04T10:36:58;2.80;;;2.37;;
6821;SDS011;3449;48.728;8.968;2023-06-04T10:39:25;5.07;;;2.40;;
6821;SDS011;3449;48.728;8.968;2023-06-04T10:42:01;3.20;;;2.80;;
6821;SDS011;3449;48.728;8.968;2023-06-04T10:44:30;4.00;;;3.20;;
6821;SDS011;3449;48.728;8.968;2023-06-04T10:46:57;5.77;;;2.80;;
6821;SDS011;3449;48.728;8.968;2023-06-04T10:49:27;2.77;;;2.43;;
6821;SDS011;3449;48.728;8.968;2023-06-04T10:51:56;4.37;;;2.80;;
6821;SDS011;3449;48.728;8.968;2023-06-04T10:54:28;3.40;;;2.87;;
6821;SDS011;3449;48.728;8.968;2023-06-04T10:56:55;4.17;;;2.60;;
6821;SDS011;3449;48.728;8.968;2023-06-04T10:59:23;4.87;;;2.60;;
6821;SDS011;3449;48.728;8.968;2023-06-04T11:01:50;5.80;;;3.03;;
6821;SDS011;3449;48.728;8.968;2023-06-04T11:04:18;2.63;;;2.43;;
6821;SDS011;3449;48.728;8.968;2023-06-04T11:06:46;6.43;;;2.77;;
6821;SDS011;3449;48.728;8.968;2023-06-04T11:09:13;5.70;;;3.30;;
6821;SDS011;3449;48.728;8.968;2023-06-04T11:11:41;4.30;;;2.90;;
6821;SDS011;3449;48.728;8.968;2023-06-04T11:14:09;4.33;;;3.00;;
6821;SDS011;3449;48.728;8.968;2023-06-04T11:16:39;2.93;;;2.73;;
6821;SDS011;3449;48.728;8.968;2023-06-04T11:19:06;3.00;;;2.60;;
6821;SDS011;3449;48.728;8.968;2023-06-04T11:21:33;3.00;;;2.33;;
6821;SDS011;3449;48.728;8.968;2023-06-04T11:24:01;9.97;;;3.03;;
6821;SDS011;3449;48.728;8.968;2023-06-04T11:26:30;4.23;;;2.80;;
6821;SDS011;3449;48.728;8.968;2023-06-04T11:28:57;3.73;;;2.63;;
6821;SDS011;3449;48.728;8.968;2023-06-04T11:31:25;3.80;;;2.87;;
6821;SDS011;3449;48.728;8.968;2023-06-04T11:33:53;4.83;;;2.80;;
6821;SDS011;3449;48.728;8.968;2023-06-04T11:36:23;3.30;;;2.37;;
6821;SDS011;3449;48.728;8.968;2023-06-04T11:38:55;5.40;;;3.40;;
6821;SDS011;3449;48.728;8.968;2023-06-04T11:41:23;3.60;;;3.10;;
6821;SDS011;3449;48.728;8.968;2023-06-04T11:43:51;2.60;;;2.40;;
6821;SDS011;3449;48.728;8.968;2023-06-04T11:46:17;2.90;;;2.60;;
6821;SDS011;3449;48.728;8.968;2023-06-04T11:48:45;6.70;;;3.10;;
6821;SDS011;3449;48.728;8.968;2023-06-04T11:51:14;3.23;;;2.27;;
6821;SDS011;3449;48.728;8.968;2023-06-04T11:53:41;2.83;;;2.53;;
6821;SDS011;3449;48.728;8.968;2023-06-04T11:56:08;3.57;;;2.70;;
6821;SDS011;3449;48.728;8.968;2023-06-04T11:58:36;5.17;;;2.90;;
6821;SDS011;3449;48.728;8.968;2023-06-04T12:01:03;2.73;;;2.50;;
6821;SDS011;3449;48.728;8.968;2023-06-04T12:03:34;5.60;;;3.07;;
6821;SDS011;3449;48.728;8.968;2023-06-04T12:06:09;8.17;;;2.80;;
6821;SDS011;3449;48.728;8.968;2023-06-04T12:08:48;3.93;;;2.83;;
6821;SDS011;3449;48.728;8.968;2023-06-04T12:11:26;4.50;;;3.50;;
6821;SDS011;3449;48.728;8.968;2023-06-04T12:13:56;4.63;;;2.53;;
6821;SDS011;3449;48.728;8.968;2023-06-04T12:16:24;5.00;;;2.97;;
6821;SDS011;3449;48.728;8.968;2023-06-04T12:18:51;4.33;;;2.97;;
6821;SDS011;3449;48.728;8.968;2023-06-04T12:21:22;7.67;;;3.00;;
6821;SDS011;3449;48.728;8.968;2023-06-04T12:23:52;8.03;;;2.43;;
6821;SDS011;3449;48.728;8.968;2023-06-04T12:26:21;4.93;;;4.00;;
6821;SDS011;3449;48.728;8.968;2023-06-04T12:29:02;2.53;;;2.30;;
6821;SDS011;3449;48.728;8.968;2023-06-04T12:31:35;7.70;;;2.93;;
6821;SDS011;3449;48.728;8.968;2023-06-04T12:34:02;7.57;;;3.27;;
6821;SDS011;3449;48.728;8.968;2023-06-04T12:36:30;5.03;;;3.57;;
6821;SDS011;3449;48.728;8.968;2023-06-04T12:39:00;3.20;;;2.90;;
6821;SDS011;3449;48.728;8.968;2023-06-04T12:41:27;2.83;;;2.63;;
6821;SDS011;3449;48.728;8.968;2023-06-04T12:43:55;3.10;;;2.80;;
6821;SDS011;3449;48.728;8.968;2023-06-04T12:46:22;3.53;;;3.17;;
6821;SDS011;3449;48.728;8.968;2023-06-04T12:48:50;3.27;;;2.90;;
6821;SDS011;3449;48.728;8.968;2023-06-04T12:51:17;4.00;;;2.77;;
6821;SDS011;3449;48.728;8.968;2023-06-04T12:53:46;5.03;;;2.90;;
6821;SDS011;3449;48.728;8.968;2023-06-04T12:56:13;7.80;;;2.90;;
6821;SDS011;3449;48.728;8.968;2023-06-04T12:58:41;4.27;;;3.30;;
6821;SDS011;3449;48.728;8.968;2023-06-04T13:01:08;3.47;;;3.17;;
6821;SDS011;3449;48.728;8.968;2023-06-04T13:03:36;6.57;;;4.10;;
6821;SDS011;3449;48.728;8.968;2023-06-04T13:06:03;5.47;;;3.43;;
6821;SDS011;3449;48.728;8.968;2023-06-04T13:08:31;4.87;;;2.87;;
6821;SDS011;3449;48.728;8.968;2023-06-04T13:10:59;5.50;;;4.17;;
6821;SDS011;3449;48.728;8.968;2023-06-04T13:13:26;3.87;;;3.47;;
6821;SDS011;3449;48.728;8.968;2023-06-04T13:15:54;11.03;;;5.80;;
6821;SDS011;3449;48.728;8.968;2023-06-04T13:18:21;4.33;;;3.23;;
6821;SDS011;3449;48.728;8.968;2023-06-04T13:20:48;4.10;;;3.33;;
6821;SDS011;3449;48.728;8.968;2023-06-04T13:23:15;6.13;;;4.33;;
6821;SDS011;3449;48.728;8.968;2023-06-04T13:25:42;7.67;;;4.00;;
6821;SDS011;3449;48.728;8.968;2023-06-04T13:28:10;10.40;;;3.00;;
6821;SDS011;3449;48.728;8.968;2023-06-04T13:30:37;3.03;;;2.60;;
6821;SDS011;3449;48.728;8.968;2023-06-04T13:33:04;5.20;;;3.10;;
6821;SDS011;3449;48.728;8.968;2023-06-04T13:35:31;5.00;;;3.37;;
6821;SDS011;3449;48.728;8.968;2023-06-04T13:37:58;5.83;;;4.40;;
6821;SDS011;3449;48.728;8.968;2023-06-04T13:40:25;8.77;;;3.57;;
6821;SDS011;3449;48.728;8.968;2023-06-04T13:42:52;4.10;;;2.63;;
6821;SDS011;3449;48.728;8.968;2023-06-04T13:45:20;2.87;;;2.20;;
6821;SDS011;3449;48.728;8.968;2023-06-04T13:47:47;3.50;;;2.67;;
6821;SDS011;3449;48.728;8.968;2023-06-04T13:50:14;9.73;;;2.73;;
6821;SDS011;3449;48.728;8.968;2023-06-04T13:52:42;2.67;;;2.47;;
6821;SDS011;3449;48.728;8.968;2023-06-04T13:55:09;5.50;;;2.90;;
6821;SDS011;3449;48.728;8.968;2023-06-04T13:57:37;5.33;;;3.50;;
6821;SDS011;3449;48.728;8.968;2023-06-04T14:00:06;6.10;;;3.47;;
6821;SDS011;3449;48.728;8.968;2023-06-04T14:02:36;5.83;;;2.83;;
6821;SDS011;3449;48.728;8.968;2023-06-04T14:05:04;3.53;;;2.00;;
6821;SDS011;3449;48.728;8.968;2023-06-04T14:07:31;5.27;;;2.50;;
6821;SDS011;3449;48.728;8.968;2023-06-04T14:09:59;2.67;;;2.17;;
6821;SDS011;3449;48.728;8.968;2023-06-04T14:12:25;3.37;;;2.80;;
6821;SDS011;3449;48.728;8.968;2023-06-04T14:14:52;2.70;;;2.10;;
6821;SDS011;3449;48.728;8.968;2023-06-04T14:17:19;3.33;;;2.47;;
6821;SDS011;3449;48.728;8.968;2023-06-04T14:19:48;3.27;;;2.53;;
6821;SDS011;3449;48.728;8.968;2023-06-04T14:22:14;3.03;;;2.57;;
6821;SDS011;3449;48.728;8.968;2023-06-04T14:24:41;4.27;;;2.30;;
6821;SDS011;3449;48.728;8.968;2023-06-04T14:27:08;2.13;;;1.93;;
6821;SDS011;3449;48.728;8.968;2023-06-04T14:29:35;3.73;;;2.80;;
6821;SDS011;3449;48.728;8.968;2023-06-04T14:32:02;2.63;;;2.43;;
6821;SDS011;3449;48.728;8.968;2023-06-04T14:34:29;4.73;;;3.00;;
6821;SDS011;3449;48.728;8.968;2023-06-04T14:36:59;4.57;;;2.67;;
6821;SDS011;3449;48.728;8.968;2023-06-04T14:39:26;5.37;;;2.40;;
6821;SDS011;3449;48.728;8.968;2023-06-04T14:41:53;3.10;;;2.50;;
6821;SDS011;3449;48.728;8.968;2023-06-04T14:44:20;4.00;;;2.83;;
6821;SDS011;3449;48.728;8.968;2023-06-04T14:46:48;3.43;;;2.70;;
6821;SDS011;3449;48.728;8.968;2023-06-04T14:49:16;3.07;;;2.73;;
6821;SDS011;3449;48.728;8.968;2023-06-04T14:51:43;4.33;;;2.20;;
6821;SDS011;3449;48.728;8.968;2023-06-04T14:54:12;5.57;;;3.50;;
6821;SDS011;3449;48.728;8.968;2023-06-04T14:56:39;5.07;;;2.60;;
6821;SDS011;3449;48.728;8.968;2023-06-04T14:59:06;7.17;;;2.80;;
6821;SDS011;3449;48.728;8.968;2023-06-04T15:01:36;3.47;;;2.70;;
6821;SDS011;3449;48.728;8.968;2023-06-04T15:04:03;4.90;;;3.20;;
6821;SDS011;3449;48.728;8.968;2023-06-04T15:06:30;4.80;;;2.60;;
6821;SDS011;3449;48.728;8.968;2023-06-04T15:08:57;2.80;;;2.27;;
6821;SDS011;3449;48.728;8.968;2023-06-04T15:11:25;3.47;;;2.70;;
6821;SDS011;3449;48.728;8.968;2023-06-04T15:13:52;4.97;;;3.23;;
6821;SDS011;3449;48.728;8.968;2023-06-04T15:16:19;5.20;;;3.00;;
6821;SDS011;3449;48.728;8.968;2023-06-04T15:18:47;6.30;;;3.23;;